首页
METAR-TAF:

METAR-TAF

机场 :

Grafenwöhr, 德国

纬度: 49-42N, 经度: 011-57E, 海拔: 415米

当前天气观测

该预报发布于21分钟前的04:26 UTC
风速6节,风向东南
温度 2°C
湿度 100%
气压 1005 hPa
能见度10公里或以上
阴天层高于600英尺

METAR: ETIC 140426Z AUTO 14006KT 9999 OVC006 02/02 A2967 RMK AO2 SLP067 $

时间: 05:47 (04:47 UTC)

预报

该预报发布于3小时和25分钟前的01:22 UTC
预报有效从14日的 01点(UTC)到 15日的 04点(UTC)
风速6节,风向多变
能見度: 6000
多云层高于300英尺
轻雾
短暂存在
从 14日的 01点(UTC)到 14日的 06点(UTC)
多云层高于500英尺
成为
从 14日的 06点(UTC)到 14日的 07点(UTC)
风速9节,风向东转东南
能见度10公里或以上
多云层高于1500英尺
成为
从 14日的 15点(UTC)到 14日的 16点(UTC)
风速10节,风向,有时为15节阵风
能见度10公里或以上
散云层高于1000英尺
多云层高于2000英尺
成为
从 15日的 02点(UTC)到 15日的 03点(UTC)
风速9节,风向
能见度10公里或以上
散云层高于2000英尺
多云层高于4000英尺

TAF: ETIC 140122Z 1401/1504 VRB06KT 6000 BR BKN003 QNH2964INS TEMPO 1401/1406 BKN005 BECMG 1406/1407 11009KT 9999 BKN015 QNH2961INS BECMG 1415/1416 08010G15KT 9999 SCT010 BKN020 QNH2947INS BECMG 1502/1503 08009KT 9999 SCT020 BKN040 QNH2941INS TX06/1412Z TN00/1406Z

超过4000个机场的气象观测和天气预报(METAR&TAF报告)。

可查询的气象台以黄色和红色小点在地图上表示。

将鼠标移到小点上方,可查看气象台名称。

然后点击查看天气观测和预报。

如需切换地图:点击带黑十字的绿色按钮放大地图;点击带横线的绿色按钮缩小地图;或者点击绿色箭头查看邻近地区的地图。


METAR-TAF: